PWSweather.com
Personal Weather Stations
Station Observations
KV9EWX
Winnebago, Il, Winnebago, IL 61088

Winnebago, IlWinnebago, IL 61088

Lat: 42.261175, Lon: -89.236369

Elevation: 892

Station Type: Lacrosse ws-2811

Latest ConditionsUpdated 11:55:23 PM CST Thursday, Feb 26, 2015
Currently Today's Max Today's Min Today's Average
Temperature -3.1°F-19.5°C 24.0°F-4.4°C -3.1°F-19.5°C 10.4°F-12.0°C
Dew Point -9.8°F-23.2°C 9.0°F-12.8°C -10.4°F-23.6°C 1.6°F-16.9°C
Winds 3.1 mph WNW5.0 kmh WNW 13.7 mph NE22.0 kmh NE - 5.1 mph 8.2 kmh
Wind Gusts 5.4 mph8.7 kmh 22.8 mph36.7 kmh - -
Humidity 72% 85% 48% 68%
Pressure 30.04 in1017.3 mb 30.04 in1017.3 mb 29.67 in1004.7 mb -
Hour Temp Dew Point Humidity Winds Wind Gusts Pressure Precip Precip Rate Daily Precip Total
11:55 PM -3.1°F-19.5°C -9.8°F-23.2°C 72% 3.1 mph WNW5.0 kmh WNW 5.4 mph8.7 kmh 30.04 in1017.3 mb 0.00 in0.0 mm 0.00 in/hr0.0 mm/hr 0.00 in0.0 mm
11:50 PM -3.1°F-19.5°C -9.8°F-23.2°C 72% 3.3 mph WNW5.3 kmh WNW 6.7 mph10.8 kmh 30.03 in1016.9 mb 0.00 in0.0 mm 0.00 in/hr0.0 mm/hr 0.00 in0.0 mm
11:45 PM -3.0°F-19.4°C -9.7°F-23.2°C 72% 2.1 mph WNW3.4 kmh WNW 6.7 mph10.8 kmh 30.03 in1016.9 mb 0.00 in0.0 mm 0.00 in/hr0.0 mm/hr 0.00 in0.0 mm
11:40 PM -2.8°F-19.3°C -9.6°F-23.1°C 72% 2.7 mph W4.3 kmh W 4.4 mph7.1 kmh 30.03 in1016.9 mb 0.00 in0.0 mm 0.00 in/hr0.0 mm/hr 0.00 in0.0 mm
11:35 PM -2.8°F-19.3°C -9.6°F-23.1°C 72% 2.6 mph W4.2 kmh W 4.4 mph7.1 kmh 30.03 in1016.9 mb 0.00 in0.0 mm 0.00 in/hr0.0 mm/hr 0.00 in0.0 mm
11:30 PM -2.6°F-19.2°C -9.4°F-23.0°C 72% 2.9 mph W4.7 kmh W 4.4 mph7.1 kmh 30.03 in1016.9 mb 0.00 in0.0 mm 0.00 in/hr0.0 mm/hr 0.00 in0.0 mm
11:25 PM -2.8°F-19.3°C -9.6°F-23.1°C 72% 2.7 mph W4.3 kmh W 4.4 mph7.1 kmh 30.03 in1016.9 mb 0.00 in0.0 mm 0.00 in/hr0.0 mm/hr 0.00 in0.0 mm
11:20 PM -2.8°F-19.3°C -9.8°F-23.2°C 71% 2.5 mph WNW4.0 kmh WNW 5.1 mph8.2 kmh 30.03 in1016.9 mb 0.00 in0.0 mm 0.00 in/hr0.0 mm/hr 0.00 in0.0 mm
11:15 PM -3.0°F-19.4°C -10.0°F-23.3°C 71% 2.6 mph WNW4.2 kmh WNW 5.1 mph8.2 kmh 30.03 in1016.9 mb 0.00 in0.0 mm 0.00 in/hr0.0 mm/hr 0.00 in0.0 mm
11:10 PM -2.8°F-19.3°C -9.8°F-23.2°C 71% 2.1 mph W3.4 kmh W 4.4 mph7.1 kmh 30.03 in1016.9 mb 0.00 in0.0 mm 0.00 in/hr0.0 mm/hr 0.00 in0.0 mm
11:05 PM -2.8°F-19.3°C -9.8°F-23.2°C 71% 2.4 mph W3.9 kmh W 4.4 mph7.1 kmh 30.03 in1016.9 mb 0.00 in0.0 mm 0.00 in/hr0.0 mm/hr 0.00 in0.0 mm
11:00 PM -2.6°F-19.2°C -9.9°F-23.3°C 70% 2.0 mph W3.2 kmh W 4.4 mph7.1 kmh 30.03 in1016.9 mb 0.00 in0.0 mm 0.00 in/hr0.0 mm/hr 0.00 in0.0 mm
10:55 PM -2.4°F-19.1°C -9.5°F-23.1°C 71% 2.0 mph W3.2 kmh W 3.9 mph6.3 kmh 30.03 in1016.9 mb 0.00 in0.0 mm 0.00 in/hr0.0 mm/hr 0.00 in0.0 mm
10:50 PM -2.4°F-19.1°C -9.7°F-23.2°C 70% 2.4 mph W3.9 kmh W 4.7 mph7.6 kmh 30.03 in1016.9 mb 0.00 in0.0 mm 0.00 in/hr0.0 mm/hr 0.00 in0.0 mm
10:45 PM -2.4°F-19.1°C -9.7°F-23.2°C 70% 2.2 mph W3.5 kmh W 4.7 mph7.6 kmh 30.03 in1016.9 mb 0.00 in0.0 mm 0.00 in/hr0.0 mm/hr 0.00 in0.0 mm
10:40 PM -2.4°F-19.1°C -9.7°F-23.2°C 70% 2.0 mph W3.2 kmh W 3.5 mph5.6 kmh 30.03 in1016.9 mb 0.00 in0.0 mm 0.00 in/hr0.0 mm/hr 0.00 in0.0 mm
10:35 PM -2.4°F-19.1°C -9.7°F-23.2°C 70% 2.1 mph W3.4 kmh W 3.5 mph5.6 kmh 30.02 in1016.6 mb 0.00 in0.0 mm 0.00 in/hr0.0 mm/hr 0.00 in0.0 mm
10:30 PM -2.4°F-19.1°C -10.0°F-23.3°C 69% 2.5 mph W4.0 kmh W 3.5 mph5.6 kmh 30.02 in1016.6 mb 0.00 in0.0 mm 0.00 in/hr0.0 mm/hr 0.00 in0.0 mm
10:25 PM -2.4°F-19.1°C -10.0°F-23.3°C 69% 2.2 mph W3.5 kmh W 3.5 mph5.6 kmh 30.02 in1016.6 mb 0.00 in0.0 mm 0.00 in/hr0.0 mm/hr 0.00 in0.0 mm
10:20 PM -2.4°F-19.1°C -10.0°F-23.3°C 69% 2.2 mph W3.5 kmh W 3.5 mph5.6 kmh 30.03 in1016.9 mb 0.00 in0.0 mm 0.00 in/hr0.0 mm/hr 0.00 in0.0 mm
10:15 PM -2.2°F-19.0°C -9.9°F-23.3°C 69% 2.2 mph W3.5 kmh W 3.1 mph5.0 kmh 30.03 in1016.9 mb 0.00 in0.0 mm 0.00 in/hr0.0 mm/hr 0.00 in0.0 mm
10:10 PM -2.2°F-19.0°C -9.9°F-23.3°C 69% 1.8 mph W2.9 kmh W 3.1 mph5.0 kmh 30.03 in1016.9 mb 0.00 in0.0 mm 0.00 in/hr0.0 mm/hr 0.00 in0.0 mm
10:05 PM -2.2°F-19.0°C -9.9°F-23.3°C 69% 1.4 mph WSW2.3 kmh WSW 2.8 mph4.5 kmh 30.03 in1016.9 mb 0.00 in0.0 mm 0.00 in/hr0.0 mm/hr 0.00 in0.0 mm
10:00 PM -2.2°F-19.0°C -9.9°F-23.3°C 69% 1.4 mph W2.3 kmh W 2.3 mph3.7 kmh 30.03 in1016.9 mb 0.00 in0.0 mm 0.00 in/hr0.0 mm/hr 0.00 in0.0 mm
09:55 PM -2.2°F-19.0°C -10.1°F-23.4°C 68% 1.5 mph W2.4 kmh W 2.3 mph3.7 kmh 30.02 in1016.6 mb 0.00 in0.0 mm 0.00 in/hr0.0 mm/hr 0.00 in0.0 mm
09:50 PM -2.2°F-19.0°C -10.1°F-23.4°C 68% 0.8 mph W1.3 kmh W 1.6 mph2.6 kmh 30.02 in1016.6 mb 0.00 in0.0 mm 0.00 in/hr0.0 mm/hr 0.00 in0.0 mm
09:45 PM -2.1°F-18.9°C -10.4°F-23.6°C 67% Calm Calm 1.2 mph1.9 kmh 30.02 in1016.6 mb 0.00 in0.0 mm 0.00 in/hr0.0 mm/hr 0.00 in0.0 mm
09:39 PM -2.1°F-18.9°C -10.1°F-23.4°C 68% 0.6 mph W1.0 kmh W 1.6 mph2.6 kmh 30.02 in1016.6 mb 0.00 in0.0 mm 0.00 in/hr0.0 mm/hr 0.00 in0.0 mm
09:34 PM -2.1°F-18.9°C -10.4°F-23.6°C 67% 0.6 mph W1.0 kmh W 1.6 mph2.6 kmh 30.02 in1016.6 mb 0.00 in0.0 mm 0.00 in/hr0.0 mm/hr 0.00 in0.0 mm
09:30 PM -1.9°F-18.8°C -10.2°F-23.4°C 67% 1.3 mph W2.1 kmh W 1.9 mph3.1 kmh 30.02 in1016.6 mb 0.00 in0.0 mm 0.00 in/hr0.0 mm/hr 0.00 in0.0 mm
09:25 PM -1.7°F-18.7°C -10.3°F-23.5°C 66% Calm Calm 1.9 mph3.1 kmh 30.02 in1016.6 mb 0.00 in0.0 mm 0.00 in/hr0.0 mm/hr 0.00 in0.0 mm
09:19 PM -1.6°F-18.7°C -9.8°F-23.2°C 67% 0.7 mph W1.1 kmh W 1.9 mph3.1 kmh 30.02 in1016.6 mb 0.00 in0.0 mm 0.00 in/hr0.0 mm/hr 0.00 in0.0 mm
09:14 PM -1.4°F-18.6°C -9.9°F-23.3°C 66% Calm Calm 1.6 mph2.6 kmh 30.02 in1016.6 mb 0.00 in0.0 mm 0.00 in/hr0.0 mm/hr 0.00 in0.0 mm
09:09 PM -1.3°F-18.5°C -9.8°F-23.2°C 66% 0.6 mph WSW1.0 kmh WSW 1.9 mph3.1 kmh 30.02 in1016.6 mb 0.00 in0.0 mm 0.00 in/hr0.0 mm/hr 0.00 in0.0 mm
09:04 PM -1.1°F-18.4°C -9.6°F-23.1°C 66% 1.0 mph W1.6 kmh W 1.9 mph3.1 kmh 30.01 in1016.3 mb 0.00 in0.0 mm 0.00 in/hr0.0 mm/hr 0.00 in0.0 mm
08:59 PM -1.1°F-18.4°C -9.6°F-23.1°C 66% 0.8 mph W1.3 kmh W 1.6 mph2.6 kmh 30.01 in1016.3 mb 0.00 in0.0 mm 0.00 in/hr0.0 mm/hr 0.00 in0.0 mm
08:54 PM -0.9°F-18.3°C -9.8°F-23.2°C 65% Calm Calm 1.2 mph1.9 kmh 30.01 in1016.3 mb 0.00 in0.0 mm 0.00 in/hr0.0 mm/hr 0.00 in0.0 mm
08:49 PM -0.7°F-18.2°C -9.9°F-23.3°C 64% Calm Calm -- 30.01 in1016.3 mb 0.00 in0.0 mm 0.00 in/hr0.0 mm/hr 0.00 in0.0 mm
08:44 PM -0.5°F-18.1°C -9.7°F-23.2°C 64% Calm Calm 1.2 mph1.9 kmh 30.01 in1016.3 mb 0.00 in0.0 mm 0.00 in/hr0.0 mm/hr 0.00 in0.0 mm
08:39 PM -0.4°F-18.0°C -9.6°F-23.1°C 64% 0.3 mph W0.5 kmh W 1.2 mph1.9 kmh 30.01 in1016.3 mb 0.00 in0.0 mm 0.00 in/hr0.0 mm/hr 0.00 in0.0 mm
08:34 PM -0.4°F-18.0°C -9.9°F-23.3°C 63% Calm Calm -- 30.01 in1016.3 mb 0.00 in0.0 mm 0.00 in/hr0.0 mm/hr 0.00 in0.0 mm
08:29 PM 0.0°F-17.8°C -9.6°F-23.1°C 63% Calm Calm -- 30.00 in1015.9 mb 0.00 in0.0 mm 0.00 in/hr0.0 mm/hr 0.00 in0.0 mm
08:24 PM 0.4°F-17.6°C -9.2°F-22.9°C 63% Calm Calm -- 30.00 in1015.9 mb 0.00 in0.0 mm 0.00 in/hr0.0 mm/hr 0.00 in0.0 mm
08:19 PM 0.7°F-17.4°C -8.9°F-22.7°C 63% Calm Calm 1.2 mph1.9 kmh 30.00 in1015.9 mb 0.00 in0.0 mm 0.00 in/hr0.0 mm/hr 0.00 in0.0 mm
08:14 PM 1.1°F-17.2°C -8.2°F-22.3°C 64% 0.3 mph W0.5 kmh W 3.9 mph6.3 kmh 30.00 in1015.9 mb 0.00 in0.0 mm 0.00 in/hr0.0 mm/hr 0.00 in0.0 mm
08:09 PM 1.1°F-17.2°C -8.5°F-22.5°C 63% 1.3 mph W2.1 kmh W 3.9 mph6.3 kmh 30.00 in1015.9 mb 0.00 in0.0 mm 0.00 in/hr0.0 mm/hr 0.00 in0.0 mm
08:04 PM 1.1°F-17.2°C -8.5°F-22.5°C 63% 1.2 mph W1.9 kmh W 1.6 mph2.6 kmh 30.00 in1015.9 mb 0.00 in0.0 mm 0.00 in/hr0.0 mm/hr 0.00 in0.0 mm
07:59 PM 1.4°F-17.0°C -8.3°F-22.4°C 63% Calm Calm -- 30.00 in1015.9 mb 0.00 in0.0 mm 0.00 in/hr0.0 mm/hr 0.00 in0.0 mm
07:54 PM 1.7°F-16.8°C -7.9°F-22.2°C 63% Calm Calm -- 30.00 in1015.9 mb 0.00 in0.0 mm 0.00 in/hr0.0 mm/hr 0.00 in0.0 mm
07:49 PM 1.9°F-16.7°C -7.7°F-22.1°C 63% Calm Calm -- 30.00 in1015.9 mb 0.00 in0.0 mm 0.00 in/hr0.0 mm/hr 0.00 in0.0 mm
07:44 PM 2.1°F-16.6°C -7.9°F-22.2°C 62% Calm Calm -- 30.00 in1015.9 mb 0.00 in0.0 mm 0.00 in/hr0.0 mm/hr 0.00 in0.0 mm
07:39 PM 2.4°F-16.4°C -7.6°F-22.0°C 62% Calm Calm -- 29.99 in1015.6 mb 0.00 in0.0 mm 0.00 in/hr0.0 mm/hr 0.00 in0.0 mm
07:34 PM 2.6°F-16.3°C -7.4°F-21.9°C 62% Calm Calm -- 30.00 in1015.9 mb 0.00 in0.0 mm 0.00 in/hr0.0 mm/hr 0.00 in0.0 mm
07:29 PM 2.8°F-16.2°C -7.6°F-22.0°C 61% Calm Calm -- 29.99 in1015.6 mb 0.00 in0.0 mm 0.00 in/hr0.0 mm/hr 0.00 in0.0 mm
07:24 PM 3.1°F-16.1°C -7.3°F-21.8°C 61% Calm Calm -- 29.99 in1015.6 mb 0.00 in0.0 mm 0.00 in/hr0.0 mm/hr 0.00 in0.0 mm
07:19 PM 3.3°F-15.9°C -7.4°F-21.9°C 60% Calm Calm -- 29.99 in1015.6 mb 0.00 in0.0 mm 0.00 in/hr0.0 mm/hr 0.00 in0.0 mm
07:14 PM 3.7°F-15.7°C -7.1°F-21.7°C 60% Calm Calm -- 29.99 in1015.6 mb 0.00 in0.0 mm 0.00 in/hr0.0 mm/hr 0.00 in0.0 mm
07:09 PM 4.0°F-15.6°C -6.8°F-21.6°C 60% Calm Calm -- 29.99 in1015.6 mb 0.00 in0.0 mm 0.00 in/hr0.0 mm/hr 0.00 in0.0 mm
07:03 PM 4.4°F-15.3°C -6.4°F-21.3°C 60% Calm Calm -- 29.99 in1015.6 mb 0.00 in0.0 mm 0.00 in/hr0.0 mm/hr 0.00 in0.0 mm
06:58 PM 4.8°F-15.1°C -6.1°F-21.2°C 60% Calm Calm -- 29.98 in1015.2 mb 0.00 in0.0 mm 0.00 in/hr0.0 mm/hr 0.00 in0.0 mm
06:53 PM 5.0°F-15.0°C -5.8°F-21.0°C 60% Calm Calm -- 29.98 in1015.2 mb 0.00 in0.0 mm 0.00 in/hr0.0 mm/hr 0.00 in0.0 mm
06:48 PM 5.2°F-14.9°C -5.6°F-20.9°C 60% Calm Calm -- 29.97 in1014.9 mb 0.00 in0.0 mm 0.00 in/hr0.0 mm/hr 0.00 in0.0 mm
06:43 PM 5.7°F-14.6°C -5.5°F-20.8°C 59% Calm Calm -- 29.97 in1014.9 mb 0.00 in0.0 mm 0.00 in/hr0.0 mm/hr 0.00 in0.0 mm
06:38 PM 5.9°F-14.5°C -5.3°F-20.7°C 59% Calm Calm -- 29.97 in1014.9 mb 0.00 in0.0 mm 0.00 in/hr0.0 mm/hr 0.00 in0.0 mm
06:33 PM 6.5°F-14.2°C -4.8°F-20.4°C 59% Calm Calm -- 29.97 in1014.9 mb 0.00 in0.0 mm 0.00 in/hr0.0 mm/hr 0.00 in0.0 mm
06:28 PM 6.8°F-14.0°C -4.5°F-20.3°C 59% Calm Calm -- 29.97 in1014.9 mb 0.00 in0.0 mm 0.00 in/hr0.0 mm/hr 0.00 in0.0 mm
06:23 PM 7.2°F-13.8°C -4.5°F-20.3°C 58% Calm Calm 1.9 mph3.1 kmh 29.97 in1014.9 mb 0.00 in0.0 mm 0.00 in/hr0.0 mm/hr 0.00 in0.0 mm
06:18 PM 7.4°F-13.7°C -4.3°F-20.2°C 58% Calm Calm 2.8 mph4.5 kmh 29.97 in1014.9 mb 0.00 in0.0 mm 0.00 in/hr0.0 mm/hr 0.00 in0.0 mm
06:13 PM 7.7°F-13.5°C -4.0°F-20.0°C 58% 0.9 mph WNW1.4 kmh WNW 2.8 mph4.5 kmh 29.97 in1014.9 mb 0.00 in0.0 mm 0.00 in/hr0.0 mm/hr 0.00 in0.0 mm
06:08 PM 8.1°F-13.3°C -4.0°F-20.0°C 57% 0.5 mph WNW0.8 kmh WNW 1.9 mph3.1 kmh 29.97 in1014.9 mb 0.00 in0.0 mm 0.00 in/hr0.0 mm/hr 0.00 in0.0 mm
06:03 PM 8.5°F-13.1°C -3.6°F-19.8°C 57% 0.3 mph WNW0.5 kmh WNW 2.8 mph4.5 kmh 29.96 in1014.6 mb 0.00 in0.0 mm 0.00 in/hr0.0 mm/hr 0.00 in0.0 mm
05:58 PM 8.7°F-12.9°C -3.4°F-19.7°C 57% 1.1 mph WNW1.8 kmh WNW 3.1 mph5.0 kmh 29.96 in1014.6 mb 0.00 in0.0 mm 0.00 in/hr0.0 mm/hr 0.00 in0.0 mm
05:53 PM 9.2°F-12.7°C -3.3°F-19.6°C 56% 1.3 mph NW2.1 kmh NW 4.4 mph7.1 kmh 29.96 in1014.6 mb 0.00 in0.0 mm 0.00 in/hr0.0 mm/hr 0.00 in0.0 mm
05:48 PM 9.6°F-12.4°C -3.0°F-19.4°C 56% 1.6 mph WNW2.6 kmh WNW 4.4 mph7.1 kmh 29.95 in1014.2 mb 0.00 in0.0 mm 0.00 in/hr0.0 mm/hr 0.00 in0.0 mm
05:43 PM 10.1°F-12.2°C -2.9°F-19.4°C 55% 0.6 mph NW1.0 kmh NW 4.4 mph7.1 kmh 29.95 in1014.2 mb 0.00 in0.0 mm 0.00 in/hr0.0 mm/hr 0.00 in0.0 mm
05:38 PM 10.7°F-11.8°C -2.3°F-19.1°C 55% 1.0 mph NW1.6 kmh NW 4.4 mph7.1 kmh 29.95 in1014.2 mb 0.00 in0.0 mm 0.00 in/hr0.0 mm/hr 0.00 in0.0 mm
05:33 PM 11.2°F-11.6°C -1.5°F-18.6°C 56% 1.7 mph NW2.7 kmh NW 5.4 mph8.7 kmh 29.95 in1014.2 mb 0.00 in0.0 mm 0.00 in/hr0.0 mm/hr 0.00 in0.0 mm
05:28 PM 11.7°F-11.3°C -1.3°F-18.5°C 55% 2.3 mph N3.7 kmh N 5.4 mph8.7 kmh 29.95 in1014.2 mb 0.00 in0.0 mm 0.00 in/hr0.0 mm/hr 0.00 in0.0 mm
05:23 PM 12.4°F-10.9°C -0.7°F-18.2°C 55% 1.6 mph NW2.6 kmh NW 4.4 mph7.1 kmh 29.95 in1014.2 mb 0.00 in0.0 mm 0.00 in/hr0.0 mm/hr 0.00 in0.0 mm
05:18 PM 13.1°F-10.5°C -0.1°F-17.8°C 55% 1.5 mph NNW2.4 kmh NNW 8.6 mph13.8 kmh 29.95 in1014.2 mb 0.00 in0.0 mm 0.00 in/hr0.0 mm/hr 0.00 in0.0 mm
05:13 PM 13.6°F-10.2°C 0.4°F-17.6°C 55% 3.6 mph NNW5.8 kmh NNW 8.6 mph13.8 kmh 29.95 in1014.2 mb 0.00 in0.0 mm 0.00 in/hr0.0 mm/hr 0.00 in0.0 mm
05:08 PM 14.4°F-9.8°C 1.5°F-16.9°C 56% 1.5 mph NNW2.4 kmh NNW 7.9 mph12.7 kmh 29.94 in1013.9 mb 0.00 in0.0 mm 0.00 in/hr0.0 mm/hr 0.00 in0.0 mm
05:03 PM 14.4°F-9.8°C 1.5°F-16.9°C 56% 2.4 mph NNW3.9 kmh NNW 11.4 mph18.3 kmh 29.94 in1013.9 mb 0.00 in0.0 mm 0.00 in/hr0.0 mm/hr 0.00 in0.0 mm
04:58 PM 14.0°F-10.0°C 1.1°F-17.2°C 56% 4.7 mph NW7.6 kmh NW 11.4 mph18.3 kmh 29.94 in1013.9 mb 0.00 in0.0 mm 0.00 in/hr0.0 mm/hr 0.00 in0.0 mm
04:53 PM 13.6°F-10.2°C 0.8°F-17.3°C 56% 2.7 mph N4.3 kmh N 7.5 mph12.1 kmh 29.94 in1013.9 mb 0.00 in0.0 mm 0.00 in/hr0.0 mm/hr 0.00 in0.0 mm
04:48 PM 13.6°F-10.2°C 0.4°F-17.6°C 55% 2.2 mph NW3.5 kmh NW 8.9 mph14.3 kmh 29.94 in1013.9 mb 0.00 in0.0 mm 0.00 in/hr0.0 mm/hr 0.00 in0.0 mm
04:43 PM 13.8°F-10.1°C 1.0°F-17.2°C 56% 4.8 mph NW7.7 kmh NW 9.4 mph15.1 kmh 29.93 in1013.5 mb 0.00 in0.0 mm 0.00 in/hr0.0 mm/hr 0.00 in0.0 mm
04:38 PM 13.6°F-10.2°C 0.8°F-17.3°C 56% 4.6 mph NNW7.4 kmh NNW 9.4 mph15.1 kmh 29.93 in1013.5 mb 0.00 in0.0 mm 0.00 in/hr0.0 mm/hr 0.00 in0.0 mm
04:33 PM 13.5°F-10.3°C 0.7°F-17.4°C 56% 4.4 mph NNW7.1 kmh NNW 8.9 mph14.3 kmh 29.93 in1013.5 mb 0.00 in0.0 mm 0.00 in/hr0.0 mm/hr 0.00 in0.0 mm
04:28 PM 13.5°F-10.3°C 0.3°F-17.6°C 55% 4.4 mph NNW7.1 kmh NNW 8.9 mph14.3 kmh 29.92 in1013.2 mb 0.00 in0.0 mm 0.00 in/hr0.0 mm/hr 0.00 in0.0 mm
04:23 PM 13.6°F-10.2°C 0.4°F-17.6°C 55% 3.0 mph N4.8 kmh N 6.7 mph10.8 kmh 29.92 in1013.2 mb 0.00 in0.0 mm 0.00 in/hr0.0 mm/hr 0.00 in0.0 mm
04:18 PM 13.6°F-10.2°C 0.4°F-17.6°C 55% 4.4 mph N7.1 kmh N 7.0 mph11.3 kmh 29.92 in1013.2 mb 0.00 in0.0 mm 0.00 in/hr0.0 mm/hr 0.00 in0.0 mm
04:13 PM 13.6°F-10.2°C 0.0°F-17.8°C 54% 4.0 mph N6.4 kmh N 9.4 mph15.1 kmh 29.92 in1013.2 mb 0.00 in0.0 mm 0.00 in/hr0.0 mm/hr 0.00 in0.0 mm
04:08 PM 14.0°F-10.0°C 0.4°F-17.6°C 54% 5.2 mph NW8.4 kmh NW 9.4 mph15.1 kmh 29.92 in1013.2 mb 0.00 in0.0 mm 0.00 in/hr0.0 mm/hr 0.00 in0.0 mm
04:03 PM 14.2°F-9.9°C 0.1°F-17.7°C 53% 4.0 mph NNW6.4 kmh NNW 11.0 mph17.7 kmh 29.92 in1013.2 mb 0.00 in0.0 mm 0.00 in/hr0.0 mm/hr 0.00 in0.0 mm
03:58 PM 14.4°F-9.8°C 0.3°F-17.6°C 53% 5.3 mph N8.5 kmh N 15.2 mph24.5 kmh 29.92 in1013.2 mb 0.00 in0.0 mm 0.00 in/hr0.0 mm/hr 0.00 in0.0 mm
03:53 PM 14.6°F-9.7°C 0.2°F-17.7°C 52% 9.0 mph NNW14.5 kmh NNW 15.2 mph24.5 kmh 29.92 in1013.2 mb 0.00 in0.0 mm 0.00 in/hr0.0 mm/hr 0.00 in0.0 mm
03:48 PM 15.0°F-9.4°C 0.5°F-17.5°C 52% 4.9 mph NNW7.9 kmh NNW 10.2 mph16.4 kmh 29.92 in1013.2 mb 0.00 in0.0 mm 0.00 in/hr0.0 mm/hr 0.00 in0.0 mm
03:43 PM 15.3°F-9.3°C 0.8°F-17.3°C 52% 4.4 mph NNW7.1 kmh NNW 10.2 mph16.4 kmh 29.92 in1013.2 mb 0.00 in0.0 mm 0.00 in/hr0.0 mm/hr 0.00 in0.0 mm
03:38 PM 15.7°F-9.1°C 0.7°F-17.4°C 51% 5.2 mph N8.4 kmh N 8.6 mph13.8 kmh 29.92 in1013.2 mb 0.00 in0.0 mm 0.00 in/hr0.0 mm/hr 0.00 in0.0 mm
03:33 PM 15.9°F-8.9°C 0.9°F-17.3°C 51% 4.4 mph NW7.1 kmh NW 10.5 mph16.9 kmh 29.92 in1013.2 mb 0.00 in0.0 mm 0.00 in/hr0.0 mm/hr 0.00 in0.0 mm
03:28 PM 16.6°F-8.6°C 1.1°F-17.2°C 50% 4.8 mph N7.7 kmh N 10.5 mph16.9 kmh 29.92 in1013.2 mb 0.00 in0.0 mm 0.00 in/hr0.0 mm/hr 0.00 in0.0 mm
03:23 PM 17.8°F-7.9°C 2.3°F-16.5°C 50% 5.9 mph NNW9.5 kmh NNW 9.8 mph15.8 kmh 29.92 in1013.2 mb 0.00 in0.0 mm 0.00 in/hr0.0 mm/hr 0.00 in0.0 mm
03:18 PM 19.0°F-7.2°C 2.9°F-16.2°C 49% 5.0 mph NW8.0 kmh NW 9.4 mph15.1 kmh 29.91 in1012.9 mb 0.00 in0.0 mm 0.00 in/hr0.0 mm/hr 0.00 in0.0 mm
03:13 PM 20.1°F-6.6°C 3.9°F-15.6°C 49% 4.4 mph N7.1 kmh N 9.4 mph15.1 kmh 29.91 in1012.9 mb 0.00 in0.0 mm 0.00 in/hr0.0 mm/hr 0.00 in0.0 mm
03:08 PM 20.8°F-6.2°C 4.5°F-15.3°C 49% 4.6 mph NW7.4 kmh NW 11.0 mph17.7 kmh 29.91 in1012.9 mb 0.00 in0.0 mm 0.00 in/hr0.0 mm/hr 0.00 in0.0 mm
03:03 PM 21.4°F-5.9°C 5.1°F-14.9°C 49% 5.9 mph NNW9.5 kmh NNW 12.6 mph20.3 kmh 29.91 in1012.9 mb 0.00 in0.0 mm 0.00 in/hr0.0 mm/hr 0.00 in0.0 mm
02:58 PM 22.0°F-5.6°C 5.2°F-14.9°C 48% 6.8 mph NW10.9 kmh NW 12.6 mph20.3 kmh 29.90 in1012.5 mb 0.00 in0.0 mm 0.00 in/hr0.0 mm/hr 0.00 in0.0 mm
02:53 PM 22.3°F-5.4°C 5.5°F-14.7°C 48% 6.5 mph WNW10.5 kmh WNW 12.1 mph19.5 kmh 29.90 in1012.5 mb 0.00 in0.0 mm 0.00 in/hr0.0 mm/hr 0.00 in0.0 mm
02:48 PM 22.7°F-5.2°C 6.8°F-14.0°C 50% 6.7 mph N10.8 kmh N 12.6 mph20.3 kmh 29.90 in1012.5 mb 0.00 in0.0 mm 0.00 in/hr0.0 mm/hr 0.00 in0.0 mm
02:43 PM 22.2°F-5.4°C 6.3°F-14.3°C 50% 5.3 mph N8.5 kmh N 13.7 mph22.0 kmh 29.90 in1012.5 mb 0.00 in0.0 mm 0.00 in/hr0.0 mm/hr 0.00 in0.0 mm
02:38 PM 22.5°F-5.3°C 6.1°F-14.4°C 49% 7.5 mph NW12.1 kmh NW 13.7 mph22.0 kmh 29.90 in1012.5 mb 0.00 in0.0 mm 0.00 in/hr0.0 mm/hr 0.00 in0.0 mm
02:33 PM 22.9°F-5.1°C 6.9°F-13.9°C 50% 6.5 mph NNW10.5 kmh NNW 16.1 mph25.9 kmh 29.90 in1012.5 mb 0.00 in0.0 mm 0.00 in/hr0.0 mm/hr 0.00 in0.0 mm
02:28 PM 22.7°F-5.2°C 6.3°F-14.3°C 49% 6.7 mph NNW10.8 kmh NNW 16.1 mph25.9 kmh 29.90 in1012.5 mb 0.00 in0.0 mm 0.00 in/hr0.0 mm/hr 0.00 in0.0 mm
02:23 PM 23.1°F-4.9°C 7.1°F-13.8°C 50% 8.2 mph NW13.2 kmh NW 14.9 mph24.0 kmh 29.90 in1012.5 mb 0.00 in0.0 mm 0.00 in/hr0.0 mm/hr 0.00 in0.0 mm
02:18 PM 23.2°F-4.9°C 7.2°F-13.8°C 50% 7.8 mph NNW12.6 kmh NNW 14.9 mph24.0 kmh 29.90 in1012.5 mb 0.00 in0.0 mm 0.00 in/hr0.0 mm/hr 0.00 in0.0 mm
02:13 PM 23.6°F-4.7°C 7.6°F-13.6°C 50% 5.6 mph N9.0 kmh N 11.0 mph17.7 kmh 29.90 in1012.5 mb 0.00 in0.0 mm 0.00 in/hr0.0 mm/hr 0.00 in0.0 mm
02:08 PM 24.0°F-4.4°C 8.4°F-13.1°C 51% 4.6 mph NNW7.4 kmh NNW 11.7 mph18.8 kmh 29.89 in1012.2 mb 0.00 in0.0 mm 0.00 in/hr0.0 mm/hr 0.00 in0.0 mm
02:03 PM 23.4°F-4.8°C 7.8°F-13.4°C 51% 7.7 mph NNW12.4 kmh NNW 11.7 mph18.8 kmh 29.89 in1012.2 mb 0.00 in0.0 mm 0.00 in/hr0.0 mm/hr 0.00 in0.0 mm
01:58 PM 22.9°F-5.1°C 7.4°F-13.7°C 51% 4.1 mph N6.6 kmh N 16.1 mph25.9 kmh 29.90 in1012.5 mb 0.00 in0.0 mm 0.00 in/hr0.0 mm/hr 0.00 in0.0 mm
01:53 PM 22.3°F-5.4°C 6.4°F-14.2°C 50% 6.6 mph N10.6 kmh N 18.7 mph30.1 kmh 29.89 in1012.2 mb 0.00 in0.0 mm 0.00 in/hr0.0 mm/hr 0.00 in0.0 mm
01:48 PM 22.3°F-5.4°C 6.9°F-13.9°C 51% 8.6 mph N13.8 kmh N 22.8 mph36.7 kmh 29.89 in1012.2 mb 0.00 in0.0 mm 0.00 in/hr0.0 mm/hr 0.00 in0.0 mm
01:43 PM 22.3°F-5.4°C 6.9°F-13.9°C 51% 9.2 mph N14.8 kmh N 22.8 mph36.7 kmh 29.89 in1012.2 mb 0.00 in0.0 mm 0.00 in/hr0.0 mm/hr 0.00 in0.0 mm
01:38 PM 22.7°F-5.2°C 7.2°F-13.8°C 51% 7.6 mph N12.2 kmh N 17.7 mph28.5 kmh 29.89 in1012.2 mb 0.00 in0.0 mm 0.00 in/hr0.0 mm/hr 0.00 in0.0 mm
01:33 PM 22.7°F-5.2°C 7.2°F-13.8°C 51% 5.5 mph NW8.9 kmh NW 22.8 mph36.7 kmh 29.89 in1012.2 mb 0.00 in0.0 mm 0.00 in/hr0.0 mm/hr 0.00 in0.0 mm
01:28 PM 22.7°F-5.2°C 7.2°F-13.8°C 51% 10.0 mph NNE16.1 kmh NNE 22.8 mph36.7 kmh 29.89 in1012.2 mb 0.00 in0.0 mm 0.00 in/hr0.0 mm/hr 0.00 in0.0 mm
01:23 PM 22.5°F-5.3°C 7.0°F-13.9°C 51% 6.6 mph N10.6 kmh N 12.9 mph20.8 kmh 29.89 in1012.2 mb 0.00 in0.0 mm 0.00 in/hr0.0 mm/hr 0.00 in0.0 mm
01:18 PM 22.7°F-5.2°C 7.7°F-13.5°C 52% 5.9 mph NW9.5 kmh NW 16.1 mph25.9 kmh 29.89 in1012.2 mb 0.00 in0.0 mm 0.00 in/hr0.0 mm/hr 0.00 in0.0 mm
01:13 PM 22.7°F-5.2°C 7.2°F-13.8°C 51% 6.6 mph N10.6 kmh N 16.8 mph27.0 kmh 29.89 in1012.2 mb 0.00 in0.0 mm 0.00 in/hr0.0 mm/hr 0.00 in0.0 mm
01:08 PM 22.9°F-5.1°C 8.3°F-13.2°C 53% 5.3 mph NNW8.5 kmh NNW 16.8 mph27.0 kmh 29.89 in1012.2 mb 0.00 in0.0 mm 0.00 in/hr0.0 mm/hr 0.00 in0.0 mm
01:03 PM 22.3°F-5.4°C 7.7°F-13.5°C 53% 4.7 mph NNW7.6 kmh NNW 16.4 mph26.4 kmh 29.89 in1012.2 mb 0.00 in0.0 mm 0.00 in/hr0.0 mm/hr 0.00 in0.0 mm
12:58 PM 22.0°F-5.6°C 7.5°F-13.6°C 53% 7.3 mph N11.7 kmh N 19.3 mph31.1 kmh 29.89 in1012.2 mb 0.00 in0.0 mm 0.00 in/hr0.0 mm/hr 0.00 in0.0 mm
12:53 PM 22.0°F-5.6°C 7.0°F-13.9°C 52% 9.6 mph N15.4 kmh N 19.3 mph31.1 kmh 29.89 in1012.2 mb 0.00 in0.0 mm 0.00 in/hr0.0 mm/hr 0.00 in0.0 mm
12:48 PM 22.5°F-5.3°C 8.3°F-13.2°C 54% 7.1 mph N11.4 kmh N 17.7 mph28.5 kmh 29.89 in1012.2 mb 0.00 in0.0 mm 0.00 in/hr0.0 mm/hr 0.00 in0.0 mm
12:43 PM 22.0°F-5.6°C 7.9°F-13.4°C 54% 7.0 mph NNW11.3 kmh NNW 17.7 mph28.5 kmh 29.89 in1012.2 mb 0.00 in0.0 mm 0.00 in/hr0.0 mm/hr 0.00 in0.0 mm
12:38 PM 22.3°F-5.4°C 9.0°F-12.8°C 56% 6.6 mph NNW10.6 kmh NNW 14.9 mph24.0 kmh 29.89 in1012.2 mb 0.00 in0.0 mm 0.00 in/hr0.0 mm/hr 0.00 in0.0 mm
12:33 PM 21.3°F-5.9°C 7.7°F-13.5°C 55% 5.5 mph N8.9 kmh N 20.3 mph32.7 kmh 29.89 in1012.2 mb 0.00 in0.0 mm 0.00 in/hr0.0 mm/hr 0.00 in0.0 mm
12:28 PM 20.5°F-6.4°C 6.8°F-14.0°C 55% 11.5 mph NNE18.5 kmh NNE 20.3 mph32.7 kmh 29.89 in1012.2 mb 0.00 in0.0 mm 0.00 in/hr0.0 mm/hr 0.00 in0.0 mm
12:23 PM 19.2°F-7.1°C 5.7°F-14.6°C 55% 5.4 mph NNW8.7 kmh NNW 16.8 mph27.0 kmh 29.89 in1012.2 mb 0.00 in0.0 mm 0.00 in/hr0.0 mm/hr 0.00 in0.0 mm
12:18 PM 19.7°F-6.8°C 5.7°F-14.6°C 54% 11.2 mph NE18.0 kmh NE 17.7 mph28.5 kmh 29.89 in1012.2 mb 0.00 in0.0 mm 0.00 in/hr0.0 mm/hr 0.00 in0.0 mm
12:13 PM 19.9°F-6.7°C 5.9°F-14.5°C 54% 7.9 mph NNE12.7 kmh NNE 21.5 mph34.6 kmh 29.89 in1012.2 mb 0.00 in0.0 mm 0.00 in/hr0.0 mm/hr 0.00 in0.0 mm
12:08 PM 20.3°F-6.5°C 6.2°F-14.3°C 54% 13.7 mph NE22.0 kmh NE 21.5 mph34.6 kmh 29.89 in1012.2 mb 0.00 in0.0 mm 0.00 in/hr0.0 mm/hr 0.00 in0.0 mm
12:03 PM 21.4°F-5.9°C 7.8°F-13.4°C 55% 10.7 mph N17.2 kmh N 19.3 mph31.1 kmh 29.89 in1012.2 mb 0.00 in0.0 mm 0.00 in/hr0.0 mm/hr 0.00 in0.0 mm
11:58 AM 21.4°F-5.9°C 8.6°F-13.0°C 57% 9.9 mph N15.9 kmh N 18.0 mph29.0 kmh 29.89 in1012.2 mb 0.00 in0.0 mm 0.00 in/hr0.0 mm/hr 0.00 in0.0 mm
11:53 AM 20.6°F-6.3°C 6.9°F-13.9°C 55% 9.4 mph N15.1 kmh N 18.7 mph30.1 kmh 29.89 in1012.2 mb 0.00 in0.0 mm 0.00 in/hr0.0 mm/hr 0.00 in0.0 mm
11:48 AM 21.1°F-6.1°C 7.9°F-13.4°C 56% 9.3 mph N15.0 kmh N 18.7 mph30.1 kmh 29.89 in1012.2 mb 0.00 in0.0 mm 0.00 in/hr0.0 mm/hr 0.00 in0.0 mm
11:43 AM 20.6°F-6.3°C 7.7°F-13.5°C 57% 6.7 mph NNW10.8 kmh NNW 17.1 mph27.5 kmh 29.89 in1012.2 mb 0.00 in0.0 mm 0.00 in/hr0.0 mm/hr 0.00 in0.0 mm
11:38 AM 20.1°F-6.6°C 7.3°F-13.7°C 57% 7.4 mph W11.9 kmh W 17.1 mph27.5 kmh 29.89 in1012.2 mb 0.00 in0.0 mm 0.00 in/hr0.0 mm/hr 0.00 in0.0 mm
11:33 AM 20.1°F-6.6°C 7.7°F-13.5°C 58% 6.8 mph N10.9 kmh N 12.6 mph20.3 kmh 29.89 in1012.2 mb 0.00 in0.0 mm 0.00 in/hr0.0 mm/hr 0.00 in0.0 mm
11:28 AM 19.6°F-6.9°C 7.6°F-13.6°C 59% 6.1 mph NNW9.8 kmh NNW 17.1 mph27.5 kmh 29.89 in1012.2 mb 0.00 in0.0 mm 0.00 in/hr0.0 mm/hr 0.00 in0.0 mm
11:23 AM 18.8°F-7.3°C 6.5°F-14.2°C 58% 9.8 mph N15.8 kmh N 18.4 mph29.6 kmh 29.89 in1012.2 mb 0.00 in0.0 mm 0.00 in/hr0.0 mm/hr 0.00 in0.0 mm
11:18 AM 19.0°F-7.2°C 6.7°F-14.1°C 58% 7.7 mph N12.4 kmh N 18.4 mph29.6 kmh 29.89 in1012.2 mb 0.00 in0.0 mm 0.00 in/hr0.0 mm/hr 0.00 in0.0 mm
11:13 AM 18.8°F-7.3°C 7.3°F-13.7°C 60% 6.3 mph N10.1 kmh N 15.6 mph25.1 kmh 29.89 in1012.2 mb 0.00 in0.0 mm 0.00 in/hr0.0 mm/hr 0.00 in0.0 mm
11:08 AM 17.8°F-7.9°C 6.7°F-14.1°C 61% 8.6 mph N13.8 kmh N 16.1 mph25.9 kmh 29.89 in1012.2 mb 0.00 in0.0 mm 0.00 in/hr0.0 mm/hr 0.00 in0.0 mm
11:03 AM 16.6°F-8.6°C 5.1°F-14.9°C 60% 9.5 mph N15.3 kmh N 16.1 mph25.9 kmh 29.88 in1011.9 mb 0.00 in0.0 mm 0.00 in/hr0.0 mm/hr 0.00 in0.0 mm
10:58 AM 16.8°F-8.4°C 5.3°F-14.8°C 60% 8.4 mph N13.5 kmh N 18.4 mph29.6 kmh 29.88 in1011.9 mb 0.00 in0.0 mm 0.00 in/hr0.0 mm/hr 0.00 in0.0 mm
10:53 AM 17.3°F-8.2°C 5.8°F-14.6°C 60% 7.5 mph N12.1 kmh N 18.4 mph29.6 kmh 29.88 in1011.9 mb 0.00 in0.0 mm 0.00 in/hr0.0 mm/hr 0.00 in0.0 mm
10:48 AM 17.3°F-8.2°C 6.2°F-14.3°C 61% 8.5 mph NNW13.7 kmh NNW 16.8 mph27.0 kmh 29.88 in1011.9 mb 0.00 in0.0 mm 0.00 in/hr0.0 mm/hr 0.00 in0.0 mm
10:43 AM 17.0°F-8.3°C 5.9°F-14.5°C 61% 8.7 mph N14.0 kmh N 21.2 mph34.1 kmh 29.87 in1011.5 mb 0.00 in0.0 mm 0.00 in/hr0.0 mm/hr 0.00 in0.0 mm
10:38 AM 16.8°F-8.4°C 5.7°F-14.6°C 61% 10.5 mph NNW16.9 kmh NNW 21.2 mph34.1 kmh 29.87 in1011.5 mb 0.00 in0.0 mm 0.00 in/hr0.0 mm/hr 0.00 in0.0 mm
10:33 AM 17.1°F-8.3°C 6.0°F-14.4°C 61% 9.0 mph N14.5 kmh N 16.1 mph25.9 kmh 29.87 in1011.5 mb 0.00 in0.0 mm 0.00 in/hr0.0 mm/hr 0.00 in0.0 mm
10:28 AM 16.8°F-8.4°C 6.8°F-14.0°C 64% 8.1 mph N13.0 kmh N 13.3 mph21.4 kmh 29.87 in1011.5 mb 0.00 in0.0 mm 0.00 in/hr0.0 mm/hr 0.00 in0.0 mm
10:23 AM 15.7°F-9.1°C 5.4°F-14.8°C 63% 5.8 mph N9.3 kmh N 15.6 mph25.1 kmh 29.87 in1011.5 mb 0.00 in0.0 mm 0.00 in/hr0.0 mm/hr 0.00 in0.0 mm
10:18 AM 15.3°F-9.3°C 5.4°F-14.8°C 64% 9.8 mph N15.8 kmh N 19.9 mph32.0 kmh 29.87 in1011.5 mb 0.00 in0.0 mm 0.00 in/hr0.0 mm/hr 0.00 in0.0 mm
10:13 AM 15.0°F-9.4°C 5.4°F-14.8°C 65% 6.9 mph NNW11.1 kmh NNW 19.9 mph32.0 kmh 29.87 in1011.5 mb 0.00 in0.0 mm 0.00 in/hr0.0 mm/hr 0.00 in0.0 mm
10:08 AM 14.4°F-9.8°C 4.8°F-15.1°C 65% 9.5 mph N15.3 kmh N 17.1 mph27.5 kmh 29.86 in1011.2 mb 0.00 in0.0 mm 0.00 in/hr0.0 mm/hr 0.00 in0.0 mm
10:03 AM 13.6°F-10.2°C 4.4°F-15.3°C 66% 11.9 mph N19.2 kmh N 17.7 mph28.5 kmh 29.86 in1011.2 mb 0.00 in0.0 mm 0.00 in/hr0.0 mm/hr 0.00 in0.0 mm
09:58 AM 12.7°F-10.7°C 3.5°F-15.8°C 66% 10.6 mph N17.1 kmh N 18.4 mph29.6 kmh 29.87 in1011.5 mb 0.00 in0.0 mm 0.00 in/hr0.0 mm/hr 0.00 in0.0 mm
09:53 AM 11.8°F-11.2°C 3.0°F-16.1°C 67% 8.1 mph N13.0 kmh N 19.3 mph31.1 kmh 29.86 in1011.2 mb 0.00 in0.0 mm 0.00 in/hr0.0 mm/hr 0.00 in0.0 mm
09:48 AM 12.0°F-11.1°C 3.2°F-16.0°C 67% 9.1 mph NNW14.6 kmh NNW 19.3 mph31.1 kmh 29.86 in1011.2 mb 0.00 in0.0 mm 0.00 in/hr0.0 mm/hr 0.00 in0.0 mm
09:43 AM 12.9°F-10.6°C 4.7°F-15.2°C 69% 7.7 mph N12.4 kmh N 17.1 mph27.5 kmh 29.86 in1011.2 mb 0.00 in0.0 mm 0.00 in/hr0.0 mm/hr 0.00 in0.0 mm
09:38 AM 11.8°F-11.2°C 4.0°F-15.6°C 70% 10.4 mph NE16.7 kmh NE 15.2 mph24.5 kmh 29.86 in1011.2 mb 0.00 in0.0 mm 0.00 in/hr0.0 mm/hr 0.00 in0.0 mm
09:33 AM 10.9°F-11.7°C 2.7°F-16.3°C 69% 5.2 mph 8.4 kmh 18.0 mph29.0 kmh 29.86 in1011.2 mb 0.00 in0.0 mm 0.00 in/hr0.0 mm/hr 0.00 in0.0 mm
09:28 AM 11.2°F-11.6°C 3.3°F-15.9°C 70% 9.4 mph NNW15.1 kmh NNW 18.0 mph29.0 kmh 29.85 in1010.8 mb 0.00 in0.0 mm 0.00 in/hr0.0 mm/hr 0.00 in0.0 mm
09:23 AM 11.0°F-11.7°C 3.4°F-15.9°C 71% 7.6 mph N12.2 kmh N 16.8 mph27.0 kmh 29.85 in1010.8 mb 0.00 in0.0 mm 0.00 in/hr0.0 mm/hr 0.00 in0.0 mm
09:18 AM 10.1°F-12.2°C 2.6°F-16.3°C 71% 8.2 mph N13.2 kmh N 17.1 mph27.5 kmh 29.85 in1010.8 mb 0.00 in0.0 mm 0.00 in/hr0.0 mm/hr 0.00 in0.0 mm
09:13 AM 9.6°F-12.4°C 2.4°F-16.4°C 72% 8.6 mph NNW13.8 kmh NNW 17.1 mph27.5 kmh 29.85 in1010.8 mb 0.00 in0.0 mm 0.00 in/hr0.0 mm/hr 0.00 in0.0 mm
09:08 AM 9.6°F-12.4°C 2.4°F-16.4°C 72% 9.6 mph N15.4 kmh N 21.2 mph34.1 kmh 29.84 in1010.5 mb 0.00 in0.0 mm 0.00 in/hr0.0 mm/hr 0.00 in0.0 mm
09:03 AM 10.0°F-12.2°C 3.1°F-16.1°C 73% 9.7 mph NNW15.6 kmh NNW 21.2 mph34.1 kmh 29.85 in1010.8 mb 0.00 in0.0 mm 0.00 in/hr0.0 mm/hr 0.00 in0.0 mm
08:58 AM 10.0°F-12.2°C 3.4°F-15.9°C 74% 7.6 mph N12.2 kmh N 18.0 mph29.0 kmh 29.84 in1010.5 mb 0.00 in0.0 mm 0.00 in/hr0.0 mm/hr 0.00 in0.0 mm
08:52 AM 10.5°F-11.9°C 3.6°F-15.8°C 73% 10.5 mph N16.9 kmh N 18.0 mph29.0 kmh 29.84 in1010.5 mb 0.00 in0.0 mm 0.00 in/hr0.0 mm/hr 0.00 in0.0 mm
08:47 AM 10.7°F-11.8°C 4.3°F-15.4°C 75% 9.9 mph N15.9 kmh N 16.4 mph26.4 kmh 29.84 in1010.5 mb 0.00 in0.0 mm 0.00 in/hr0.0 mm/hr 0.00 in0.0 mm
08:42 AM 10.0°F-12.2°C 4.0°F-15.6°C 76% 9.8 mph NNW15.8 kmh NNW 17.1 mph27.5 kmh 29.84 in1010.5 mb 0.00 in0.0 mm 0.00 in/hr0.0 mm/hr 0.00 in0.0 mm
08:37 AM 9.4°F-12.6°C 3.7°F-15.7°C 77% 8.0 mph N12.9 kmh N 17.1 mph27.5 kmh 29.84 in1010.5 mb 0.00 in0.0 mm 0.00 in/hr0.0 mm/hr 0.00 in0.0 mm
08:32 AM 8.3°F-13.2°C 2.9°F-16.2°C 78% 7.3 mph NNW11.7 kmh NNW 19.9 mph32.0 kmh 29.84 in1010.5 mb 0.00 in0.0 mm 0.00 in/hr0.0 mm/hr 0.00 in0.0 mm
08:27 AM 7.7°F-13.5°C 2.2°F-16.6°C 78% 5.5 mph N8.9 kmh N 19.9 mph32.0 kmh 29.84 in1010.5 mb 0.00 in0.0 mm 0.00 in/hr0.0 mm/hr 0.00 in0.0 mm
08:22 AM 7.0°F-13.9°C 1.3°F-17.1°C 77% 9.1 mph N14.6 kmh N 19.9 mph32.0 kmh 29.84 in1010.5 mb 0.00 in0.0 mm 0.00 in/hr0.0 mm/hr 0.00 in0.0 mm
08:17 AM 6.6°F-14.1°C 1.2°F-17.1°C 78% 10.5 mph N16.9 kmh N 21.2 mph34.1 kmh 29.84 in1010.5 mb 0.00 in0.0 mm 0.00 in/hr0.0 mm/hr 0.00 in0.0 mm
08:12 AM 6.8°F-14.0°C 1.4°F-17.0°C 78% 9.0 mph NNW14.5 kmh NNW 21.2 mph34.1 kmh 29.84 in1010.5 mb 0.00 in0.0 mm 0.00 in/hr0.0 mm/hr 0.00 in0.0 mm
08:07 AM 6.6°F-14.1°C 1.2°F-17.1°C 78% 7.0 mph N11.3 kmh N 15.2 mph24.5 kmh 29.84 in1010.5 mb 0.00 in0.0 mm 0.00 in/hr0.0 mm/hr 0.00 in0.0 mm
08:02 AM 6.6°F-14.1°C 1.5°F-16.9°C 79% 5.3 mph N8.5 kmh N 15.2 mph24.5 kmh 29.83 in1010.2 mb 0.00 in0.0 mm 0.00 in/hr0.0 mm/hr 0.00 in0.0 mm
07:57 AM 6.6°F-14.1°C 1.7°F-16.8°C 80% 7.5 mph NNW12.1 kmh NNW 14.5 mph23.3 kmh 29.83 in1010.2 mb 0.00 in0.0 mm 0.00 in/hr0.0 mm/hr 0.00 in0.0 mm
07:52 AM 6.3°F-14.3°C 1.5°F-16.9°C 80% 6.8 mph N10.9 kmh N 16.4 mph26.4 kmh 29.83 in1010.2 mb 0.00 in0.0 mm 0.00 in/hr0.0 mm/hr 0.00 in0.0 mm
07:47 AM 5.9°F-14.5°C 1.1°F-17.2°C 80% 7.0 mph N11.3 kmh N 16.4 mph26.4 kmh 29.83 in1010.2 mb 0.00 in0.0 mm 0.00 in/hr0.0 mm/hr 0.00 in0.0 mm
07:42 AM 5.7°F-14.6°C 0.9°F-17.3°C 80% 7.2 mph N11.6 kmh N 16.4 mph26.4 kmh 29.83 in1010.2 mb 0.00 in0.0 mm 0.00 in/hr0.0 mm/hr 0.00 in0.0 mm
07:37 AM 5.9°F-14.5°C 1.1°F-17.2°C 80% 9.5 mph N15.3 kmh N 17.7 mph28.5 kmh 29.82 in1009.8 mb 0.00 in0.0 mm 0.00 in/hr0.0 mm/hr 0.00 in0.0 mm
07:32 AM 5.9°F-14.5°C 1.1°F-17.2°C 80% 10.1 mph 16.3 kmh 17.7 mph28.5 kmh 29.82 in1009.8 mb 0.00 in0.0 mm 0.00 in/hr0.0 mm/hr 0.00 in0.0 mm
07:27 AM 6.1°F-14.4°C 1.3°F-17.1°C 80% 6.9 mph N11.1 kmh N 13.7 mph22.0 kmh 29.81 in1009.5 mb 0.00 in0.0 mm 0.00 in/hr0.0 mm/hr 0.00 in0.0 mm
07:22 AM 6.5°F-14.2°C 1.6°F-16.9°C 80% 8.0 mph N12.9 kmh N 14.5 mph23.3 kmh 29.81 in1009.5 mb 0.00 in0.0 mm 0.00 in/hr0.0 mm/hr 0.00 in0.0 mm
07:17 AM 6.6°F-14.1°C 1.7°F-16.8°C 80% 7.4 mph N11.9 kmh N 14.5 mph23.3 kmh 29.81 in1009.5 mb 0.00 in0.0 mm 0.00 in/hr0.0 mm/hr 0.00 in0.0 mm
07:12 AM 7.0°F-13.9°C 2.1°F-16.6°C 80% 7.7 mph N12.4 kmh N 12.6 mph20.3 kmh 29.80 in1009.1 mb 0.00 in0.0 mm 0.00 in/hr0.0 mm/hr 0.00 in0.0 mm
07:07 AM 7.2°F-13.8°C 2.3°F-16.5°C 80% 7.5 mph N12.1 kmh N 16.1 mph25.9 kmh 29.80 in1009.1 mb 0.00 in0.0 mm 0.00 in/hr0.0 mm/hr 0.00 in0.0 mm
07:02 AM 7.4°F-13.7°C 2.5°F-16.4°C 80% 6.7 mph N10.8 kmh N 16.1 mph25.9 kmh 29.80 in1009.1 mb 0.00 in0.0 mm 0.00 in/hr0.0 mm/hr 0.00 in0.0 mm
06:57 AM 7.5°F-13.6°C 2.6°F-16.3°C 80% 9.2 mph N14.8 kmh N 15.6 mph25.1 kmh 29.80 in1009.1 mb 0.00 in0.0 mm 0.00 in/hr0.0 mm/hr 0.00 in0.0 mm
06:52 AM 7.7°F-13.5°C 2.8°F-16.2°C 80% 7.4 mph NNE11.9 kmh NNE 15.6 mph25.1 kmh 29.79 in1008.8 mb 0.00 in0.0 mm 0.00 in/hr0.0 mm/hr 0.00 in0.0 mm
06:47 AM 8.1°F-13.3°C 3.2°F-16.0°C 80% 8.2 mph N13.2 kmh N 16.1 mph25.9 kmh 29.79 in1008.8 mb 0.00 in0.0 mm 0.00 in/hr0.0 mm/hr 0.00 in0.0 mm
06:42 AM 8.1°F-13.3°C 3.2°F-16.0°C 80% 7.6 mph N12.2 kmh N 17.1 mph27.5 kmh 29.79 in1008.8 mb 0.00 in0.0 mm 0.00 in/hr0.0 mm/hr 0.00 in0.0 mm
06:37 AM 8.3°F-13.2°C 3.4°F-15.9°C 80% 5.0 mph N8.0 kmh N 17.1 mph27.5 kmh 29.79 in1008.8 mb 0.00 in0.0 mm 0.00 in/hr0.0 mm/hr 0.00 in0.0 mm
06:32 AM 8.5°F-13.1°C 3.6°F-15.8°C 80% 7.6 mph N12.2 kmh N 14.9 mph24.0 kmh 29.79 in1008.8 mb 0.00 in0.0 mm 0.00 in/hr0.0 mm/hr 0.00 in0.0 mm
06:27 AM 8.7°F-12.9°C 3.8°F-15.7°C 80% 6.0 mph N9.7 kmh N 16.4 mph26.4 kmh 29.78 in1008.5 mb 0.00 in0.0 mm 0.00 in/hr0.0 mm/hr 0.00 in0.0 mm
06:22 AM 9.1°F-12.7°C 4.2°F-15.4°C 80% 6.4 mph N10.3 kmh N 17.1 mph27.5 kmh 29.78 in1008.5 mb 0.00 in0.0 mm 0.00 in/hr0.0 mm/hr 0.00 in0.0 mm
06:17 AM 9.4°F-12.6°C 4.5°F-15.3°C 80% 6.7 mph N10.8 kmh N 17.1 mph27.5 kmh 29.77 in1008.1 mb 0.00 in0.0 mm 0.00 in/hr0.0 mm/hr 0.00 in0.0 mm
06:12 AM 9.6°F-12.4°C 4.9°F-15.1°C 81% 5.5 mph NNW8.9 kmh NNW 14.5 mph23.3 kmh 29.77 in1008.1 mb 0.00 in0.0 mm 0.00 in/hr0.0 mm/hr 0.00 in0.0 mm
06:07 AM 9.8°F-12.3°C 5.1°F-14.9°C 81% 6.3 mph N10.1 kmh N 14.5 mph23.3 kmh 29.77 in1008.1 mb 0.00 in0.0 mm 0.00 in/hr0.0 mm/hr 0.00 in0.0 mm
06:02 AM 10.0°F-12.2°C 5.3°F-14.8°C 81% 4.4 mph N7.1 kmh N 14.5 mph23.3 kmh 29.77 in1008.1 mb 0.00 in0.0 mm 0.00 in/hr0.0 mm/hr 0.00 in0.0 mm
05:57 AM 10.1°F-12.2°C 5.7°F-14.6°C 82% 6.3 mph N10.1 kmh N 10.5 mph16.9 kmh 29.77 in1008.1 mb 0.00 in0.0 mm 0.00 in/hr0.0 mm/hr 0.00 in0.0 mm
05:52 AM 10.1°F-12.2°C 5.7°F-14.6°C 82% 5.0 mph N8.0 kmh N 9.4 mph15.1 kmh 29.76 in1007.8 mb 0.00 in0.0 mm 0.00 in/hr0.0 mm/hr 0.00 in0.0 mm
05:47 AM 10.1°F-12.2°C 5.7°F-14.6°C 82% 5.4 mph N8.7 kmh N 13.7 mph22.0 kmh 29.76 in1007.8 mb 0.00 in0.0 mm 0.00 in/hr0.0 mm/hr 0.00 in0.0 mm
05:42 AM 10.3°F-12.1°C 5.9°F-14.5°C 82% 7.1 mph 11.4 kmh 15.6 mph25.1 kmh 29.76 in1007.8 mb 0.00 in0.0 mm 0.00 in/hr0.0 mm/hr 0.00 in0.0 mm
05:37 AM 10.3°F-12.1°C 6.1°F-14.4°C 83% 7.9 mph N12.7 kmh N 15.6 mph25.1 kmh 29.76 in1007.8 mb 0.00 in0.0 mm 0.00 in/hr0.0 mm/hr 0.00 in0.0 mm
05:32 AM 10.3°F-12.1°C 6.1°F-14.4°C 83% 2.4 mph N3.9 kmh N 13.3 mph21.4 kmh 29.75 in1007.5 mb 0.00 in0.0 mm 0.00 in/hr0.0 mm/hr 0.00 in0.0 mm
05:27 AM 10.3°F-12.1°C 6.1°F-14.4°C 83% 5.1 mph N8.2 kmh N 13.3 mph21.4 kmh 29.75 in1007.5 mb 0.00 in0.0 mm 0.00 in/hr0.0 mm/hr 0.00 in0.0 mm
05:22 AM 10.3°F-12.1°C 6.1°F-14.4°C 83% 6.4 mph N10.3 kmh N 13.3 mph21.4 kmh 29.74 in1007.1 mb 0.00 in0.0 mm 0.00 in/hr0.0 mm/hr 0.00 in0.0 mm
05:17 AM 10.3°F-12.1°C 6.1°F-14.4°C 83% 4.3 mph N6.9 kmh N 12.6 mph20.3 kmh 29.74 in1007.1 mb 0.00 in0.0 mm 0.00 in/hr0.0 mm/hr 0.00 in0.0 mm
05:12 AM 10.5°F-11.9°C 6.3°F-14.3°C 83% 4.4 mph N7.1 kmh N 13.3 mph21.4 kmh 29.74 in1007.1 mb 0.00 in0.0 mm 0.00 in/hr0.0 mm/hr 0.00 in0.0 mm
05:07 AM 10.3°F-12.1°C 6.1°F-14.4°C 83% 5.1 mph 8.2 kmh 13.3 mph21.4 kmh 29.74 in1007.1 mb 0.00 in0.0 mm 0.00 in/hr0.0 mm/hr 0.00 in0.0 mm
05:02 AM 10.5°F-11.9°C 6.3°F-14.3°C 83% 3.8 mph N6.1 kmh N 11.7 mph18.8 kmh 29.74 in1007.1 mb 0.00 in0.0 mm 0.00 in/hr0.0 mm/hr 0.00 in0.0 mm
04:57 AM 10.5°F-11.9°C 6.3°F-14.3°C 83% 3.2 mph N5.1 kmh N 11.0 mph17.7 kmh 29.74 in1007.1 mb 0.00 in0.0 mm 0.00 in/hr0.0 mm/hr 0.00 in0.0 mm
04:52 AM 10.5°F-11.9°C 6.3°F-14.3°C 83% 4.1 mph N6.6 kmh N 11.4 mph18.3 kmh 29.74 in1007.1 mb 0.00 in0.0 mm 0.00 in/hr0.0 mm/hr 0.00 in0.0 mm
04:47 AM 10.5°F-11.9°C 6.3°F-14.3°C 83% 6.4 mph N10.3 kmh N 11.4 mph18.3 kmh 29.74 in1007.1 mb 0.00 in0.0 mm 0.00 in/hr0.0 mm/hr 0.00 in0.0 mm
04:42 AM 10.5°F-11.9°C 6.3°F-14.3°C 83% 4.9 mph N7.9 kmh N 13.3 mph21.4 kmh 29.73 in1006.8 mb 0.00 in0.0 mm 0.00 in/hr0.0 mm/hr 0.00 in0.0 mm
04:37 AM 10.5°F-11.9°C 6.3°F-14.3°C 83% 8.8 mph N14.2 kmh N 13.3 mph21.4 kmh 29.73 in1006.8 mb 0.00 in0.0 mm 0.00 in/hr0.0 mm/hr 0.00 in0.0 mm
04:32 AM 10.7°F-11.8°C 6.5°F-14.2°C 83% 4.1 mph N6.6 kmh N 12.9 mph20.8 kmh 29.73 in1006.8 mb 0.00 in0.0 mm 0.00 in/hr0.0 mm/hr 0.00 in0.0 mm
04:27 AM 10.7°F-11.8°C 6.5°F-14.2°C 83% 4.5 mph N7.2 kmh N 12.1 mph19.5 kmh 29.73 in1006.8 mb 0.00 in0.0 mm 0.00 in/hr0.0 mm/hr 0.00 in0.0 mm
04:22 AM 10.7°F-11.8°C 6.5°F-14.2°C 83% 5.0 mph N8.0 kmh N 12.1 mph19.5 kmh 29.72 in1006.4 mb 0.00 in0.0 mm 0.00 in/hr0.0 mm/hr 0.00 in0.0 mm
04:17 AM 10.7°F-11.8°C 6.5°F-14.2°C 83% 5.3 mph N8.5 kmh N 13.7 mph22.0 kmh 29.72 in1006.4 mb 0.00 in0.0 mm 0.00 in/hr0.0 mm/hr 0.00 in0.0 mm
04:12 AM 10.9°F-11.7°C 6.7°F-14.1°C 83% 7.9 mph N12.7 kmh N 13.7 mph22.0 kmh 29.72 in1006.4 mb 0.00 in0.0 mm 0.00 in/hr0.0 mm/hr 0.00 in0.0 mm
04:07 AM 10.9°F-11.7°C 6.4°F-14.2°C 82% 4.7 mph N7.6 kmh N 10.5 mph16.9 kmh 29.71 in1006.1 mb 0.00 in0.0 mm 0.00 in/hr0.0 mm/hr 0.00 in0.0 mm
04:02 AM 10.9°F-11.7°C 6.7°F-14.1°C 83% 5.0 mph NNE8.0 kmh NNE 14.5 mph23.3 kmh 29.71 in1006.1 mb 0.00 in0.0 mm 0.00 in/hr0.0 mm/hr 0.00 in0.0 mm
03:57 AM 10.9°F-11.7°C 6.7°F-14.1°C 83% 8.1 mph N13.0 kmh N 14.5 mph23.3 kmh 29.71 in1006.1 mb 0.00 in0.0 mm 0.00 in/hr0.0 mm/hr 0.00 in0.0 mm
03:52 AM 10.9°F-11.7°C 6.7°F-14.1°C 83% 5.3 mph NNW8.5 kmh NNW 15.6 mph25.1 kmh 29.71 in1006.1 mb 0.00 in0.0 mm 0.00 in/hr0.0 mm/hr 0.00 in0.0 mm
03:47 AM 10.9°F-11.7°C 6.7°F-14.1°C 83% 7.9 mph N12.7 kmh N 15.6 mph25.1 kmh 29.71 in1006.1 mb 0.00 in0.0 mm 0.00 in/hr0.0 mm/hr 0.00 in0.0 mm
03:42 AM 10.9°F-11.7°C 6.4°F-14.2°C 82% 5.3 mph N8.5 kmh N 15.2 mph24.5 kmh 29.71 in1006.1 mb 0.00 in0.0 mm 0.00 in/hr0.0 mm/hr 0.00 in0.0 mm
03:37 AM 10.9°F-11.7°C 6.4°F-14.2°C 82% 5.6 mph NNW9.0 kmh NNW 13.3 mph21.4 kmh 29.71 in1006.1 mb 0.00 in0.0 mm 0.00 in/hr0.0 mm/hr 0.00 in0.0 mm
03:32 AM 10.9°F-11.7°C 6.4°F-14.2°C 82% 6.9 mph 11.1 kmh 16.8 mph27.0 kmh 29.71 in1006.1 mb 0.00 in0.0 mm 0.00 in/hr0.0 mm/hr 0.00 in0.0 mm
03:27 AM 10.9°F-11.7°C 6.7°F-14.1°C 83% 6.0 mph N9.7 kmh N 16.8 mph27.0 kmh 29.70 in1005.8 mb 0.00 in0.0 mm 0.00 in/hr0.0 mm/hr 0.00 in0.0 mm
03:22 AM 10.9°F-11.7°C 6.7°F-14.1°C 83% 5.9 mph N9.5 kmh N 11.7 mph18.8 kmh 29.70 in1005.8 mb 0.00 in0.0 mm 0.00 in/hr0.0 mm/hr 0.00 in0.0 mm
03:17 AM 10.9°F-11.7°C 6.7°F-14.1°C 83% 6.9 mph N11.1 kmh N 12.1 mph19.5 kmh 29.70 in1005.8 mb 0.00 in0.0 mm 0.00 in/hr0.0 mm/hr 0.00 in0.0 mm
03:12 AM 10.9°F-11.7°C 6.7°F-14.1°C 83% 6.4 mph N10.3 kmh N 12.1 mph19.5 kmh 29.70 in1005.8 mb 0.00 in0.0 mm 0.00 in/hr0.0 mm/hr 0.00 in0.0 mm
03:07 AM 10.9°F-11.7°C 6.7°F-14.1°C 83% 6.9 mph NW11.1 kmh NW 12.1 mph19.5 kmh 29.70 in1005.8 mb 0.00 in0.0 mm 0.00 in/hr0.0 mm/hr 0.00 in0.0 mm
03:02 AM 10.9°F-11.7°C 6.7°F-14.1°C 83% 5.9 mph N9.5 kmh N 11.0 mph17.7 kmh 29.70 in1005.8 mb 0.00 in0.0 mm 0.00 in/hr0.0 mm/hr 0.00 in0.0 mm
02:57 AM 10.9°F-11.7°C 6.7°F-14.1°C 83% 2.8 mph N4.5 kmh N 11.0 mph17.7 kmh 29.69 in1005.4 mb 0.00 in0.0 mm 0.00 in/hr0.0 mm/hr 0.00 in0.0 mm
02:52 AM 10.9°F-11.7°C 6.7°F-14.1°C 83% 4.3 mph N6.9 kmh N 14.9 mph24.0 kmh 29.69 in1005.4 mb 0.00 in0.0 mm 0.00 in/hr0.0 mm/hr 0.00 in0.0 mm
02:47 AM 10.9°F-11.7°C 6.7°F-14.1°C 83% 7.5 mph N12.1 kmh N 14.9 mph24.0 kmh 29.69 in1005.4 mb 0.00 in0.0 mm 0.00 in/hr0.0 mm/hr 0.00 in0.0 mm
02:42 AM 10.9°F-11.7°C 6.7°F-14.1°C 83% 3.3 mph N5.3 kmh N 12.1 mph19.5 kmh 29.69 in1005.4 mb 0.00 in0.0 mm 0.00 in/hr0.0 mm/hr 0.00 in0.0 mm
02:37 AM 11.0°F-11.7°C 6.8°F-14.0°C 83% 6.7 mph N10.8 kmh N 12.1 mph19.5 kmh 29.69 in1005.4 mb 0.00 in0.0 mm 0.00 in/hr0.0 mm/hr 0.00 in0.0 mm
02:32 AM 11.0°F-11.7°C 7.1°F-13.8°C 84% 4.8 mph N7.7 kmh N 11.0 mph17.7 kmh 29.70 in1005.8 mb 0.00 in0.0 mm 0.00 in/hr0.0 mm/hr 0.00 in0.0 mm
02:27 AM 11.0°F-11.7°C 7.1°F-13.8°C 84% 4.9 mph N7.9 kmh N 13.3 mph21.4 kmh 29.70 in1005.8 mb 0.00 in0.0 mm 0.00 in/hr0.0 mm/hr 0.00 in0.0 mm
02:22 AM 11.0°F-11.7°C 7.1°F-13.8°C 84% 6.7 mph N10.8 kmh N 13.3 mph21.4 kmh 29.70 in1005.8 mb 0.00 in0.0 mm 0.00 in/hr0.0 mm/hr 0.00 in0.0 mm
02:17 AM 11.2°F-11.6°C 7.2°F-13.8°C 84% 7.3 mph N11.7 kmh N 14.5 mph23.3 kmh 29.70 in1005.8 mb 0.00 in0.0 mm 0.00 in/hr0.0 mm/hr 0.00 in0.0 mm
02:12 AM 11.2°F-11.6°C 7.2°F-13.8°C 84% 5.9 mph N9.5 kmh N 14.5 mph23.3 kmh 29.70 in1005.8 mb 0.00 in0.0 mm 0.00 in/hr0.0 mm/hr 0.00 in0.0 mm
02:07 AM 11.2°F-11.6°C 7.2°F-13.8°C 84% 4.9 mph N7.9 kmh N 14.5 mph23.3 kmh 29.69 in1005.4 mb 0.00 in0.0 mm 0.00 in/hr0.0 mm/hr 0.00 in0.0 mm
02:02 AM 11.3°F-11.5°C 7.4°F-13.7°C 84% 5.1 mph N8.2 kmh N 16.8 mph27.0 kmh 29.69 in1005.4 mb 0.00 in0.0 mm 0.00 in/hr0.0 mm/hr 0.00 in0.0 mm
01:57 AM 11.3°F-11.5°C 7.4°F-13.7°C 84% 6.1 mph N9.8 kmh N 16.8 mph27.0 kmh 29.69 in1005.4 mb 0.00 in0.0 mm 0.00 in/hr0.0 mm/hr 0.00 in0.0 mm
01:52 AM 11.3°F-11.5°C 7.4°F-13.7°C 84% 6.5 mph N10.5 kmh N 12.9 mph20.8 kmh 29.69 in1005.4 mb 0.00 in0.0 mm 0.00 in/hr0.0 mm/hr 0.00 in0.0 mm
01:47 AM 11.5°F-11.4°C 7.6°F-13.6°C 84% 4.8 mph NNW7.7 kmh NNW 18.4 mph29.6 kmh 29.69 in1005.4 mb 0.00 in0.0 mm 0.00 in/hr0.0 mm/hr 0.00 in0.0 mm
01:42 AM 11.5°F-11.4°C 7.6°F-13.6°C 84% 5.9 mph N9.5 kmh N 18.4 mph29.6 kmh 29.69 in1005.4 mb 0.00 in0.0 mm 0.00 in/hr0.0 mm/hr 0.00 in0.0 mm
01:36 AM 11.5°F-11.4°C 7.6°F-13.6°C 84% 6.7 mph N10.8 kmh N 15.2 mph24.5 kmh 29.69 in1005.4 mb 0.00 in0.0 mm 0.00 in/hr0.0 mm/hr 0.00 in0.0 mm
01:31 AM 11.5°F-11.4°C 7.6°F-13.6°C 84% 6.1 mph N9.8 kmh N 15.2 mph24.5 kmh 29.69 in1005.4 mb 0.00 in0.0 mm 0.00 in/hr0.0 mm/hr 0.00 in0.0 mm
01:26 AM 11.7°F-11.3°C 7.8°F-13.4°C 84% 6.8 mph N10.9 kmh N 15.2 mph24.5 kmh 29.69 in1005.4 mb 0.00 in0.0 mm 0.00 in/hr0.0 mm/hr 0.00 in0.0 mm
01:21 AM 11.7°F-11.3°C 7.8°F-13.4°C 84% 8.4 mph N13.5 kmh N 15.2 mph24.5 kmh 29.69 in1005.4 mb 0.00 in0.0 mm 0.00 in/hr0.0 mm/hr 0.00 in0.0 mm
01:16 AM 11.7°F-11.3°C 8.1°F-13.3°C 85% 7.0 mph NNW11.3 kmh NNW 12.9 mph20.8 kmh 29.69 in1005.4 mb 0.00 in0.0 mm 0.00 in/hr0.0 mm/hr 0.00 in0.0 mm
01:11 AM 11.7°F-11.3°C 8.1°F-13.3°C 85% 5.4 mph N8.7 kmh N 11.7 mph18.8 kmh 29.69 in1005.4 mb 0.00 in0.0 mm 0.00 in/hr0.0 mm/hr 0.00 in0.0 mm
01:06 AM 11.7°F-11.3°C 8.1°F-13.3°C 85% 5.8 mph N9.3 kmh N 11.7 mph18.8 kmh 29.69 in1005.4 mb 0.00 in0.0 mm 0.00 in/hr0.0 mm/hr 0.00 in0.0 mm
01:01 AM 11.7°F-11.3°C 8.1°F-13.3°C 85% 5.0 mph NNW8.0 kmh NNW 11.7 mph18.8 kmh 29.69 in1005.4 mb 0.00 in0.0 mm 0.00 in/hr0.0 mm/hr 0.00 in0.0 mm
12:56 AM 11.8°F-11.2°C 8.2°F-13.2°C 85% 5.3 mph NNW8.5 kmh NNW 11.7 mph18.8 kmh 29.69 in1005.4 mb 0.00 in0.0 mm 0.00 in/hr0.0 mm/hr 0.00 in0.0 mm
12:51 AM 11.8°F-11.2°C 8.2°F-13.2°C 85% 6.8 mph N10.9 kmh N 11.7 mph18.8 kmh 29.69 in1005.4 mb 0.00 in0.0 mm 0.00 in/hr0.0 mm/hr 0.00 in0.0 mm
12:46 AM 11.8°F-11.2°C 8.2°F-13.2°C 85% 6.5 mph N10.5 kmh N 10.2 mph16.4 kmh 29.69 in1005.4 mb 0.00 in0.0 mm 0.00 in/hr0.0 mm/hr 0.00 in0.0 mm
12:41 AM 11.8°F-11.2°C 8.2°F-13.2°C 85% 4.2 mph N6.8 kmh N 13.7 mph22.0 kmh 29.69 in1005.4 mb 0.00 in0.0 mm 0.00 in/hr0.0 mm/hr 0.00 in0.0 mm
12:36 AM 11.8°F-11.2°C 8.2°F-13.2°C 85% 5.8 mph NNW9.3 kmh NNW 13.7 mph22.0 kmh 29.68 in1005.1 mb 0.00 in0.0 mm 0.00 in/hr0.0 mm/hr 0.00 in0.0 mm
12:31 AM 11.8°F-11.2°C 8.2°F-13.2°C 85% 5.8 mph N9.3 kmh N 12.9 mph20.8 kmh 29.68 in1005.1 mb 0.00 in0.0 mm 0.00 in/hr0.0 mm/hr 0.00 in0.0 mm
12:26 AM 11.8°F-11.2°C 8.2°F-13.2°C 85% 7.6 mph N12.2 kmh N 12.9 mph20.8 kmh 29.68 in1005.1 mb 0.00 in0.0 mm 0.00 in/hr0.0 mm/hr 0.00 in0.0 mm
12:21 AM 11.8°F-11.2°C 8.2°F-13.2°C 85% 6.3 mph NNE10.1 kmh NNE 11.7 mph18.8 kmh 29.68 in1005.1 mb 0.00 in0.0 mm 0.00 in/hr0.0 mm/hr 0.00 in0.0 mm
12:16 AM 11.8°F-11.2°C 8.2°F-13.2°C 85% 6.2 mph NNE10.0 kmh NNE 11.0 mph17.7 kmh 29.68 in1005.1 mb 0.00 in0.0 mm 0.00 in/hr0.0 mm/hr 0.00 in0.0 mm
12:11 AM 11.8°F-11.2°C 8.2°F-13.2°C 85% 5.6 mph N9.0 kmh N 16.4 mph26.4 kmh 29.68 in1005.1 mb 0.00 in0.0 mm 0.00 in/hr0.0 mm/hr 0.00 in0.0 mm
12:06 AM 11.8°F-11.2°C 8.2°F-13.2°C 85% 3.8 mph N6.1 kmh N 16.4 mph26.4 kmh 29.67 in1004.7 mb 0.00 in0.0 mm 0.00 in/hr0.0 mm/hr 0.00 in0.0 mm
12:01 AM 12.0°F-11.1°C 8.4°F-13.1°C 85% 4.5 mph N7.2 kmh N 12.9 mph20.8 kmh 29.67 in1004.7 mb 0.00 in0.0 mm 0.00 in/hr0.0 mm/hr 0.00 in0.0 mm